Newdale, Canada
Current Conditions -  °F | °C
As of 12:00 PM on Friday 24 Oct 2014 (Local Time) from CYBR Reporting Station
Broken Clouds Broken Clouds  
Wind Chill: 63°   Ceiling: 23000
Heat Index: 63°   Visibility: 15mi
Dew Point: 43°   Wind: 22mph
Humidity: 48%   Direction: 260°W
Pressure: 29.67"   Gusts: 32mph
Location:  50.35°N, 100.2°W
Report Text: CYBR 241700Z 26019G28KT 15SM FEW050 FEW180 BKN230 17/06 A2967 RMK SC1AC2CI5 SC TR PRESFR SLP056 DENSITY ALT 2100FT
Loading
Personal Weather Stations






























Interactive Weather Map
Tropical Storm Tracking
New forecast layout! Learn more

10-Day Weather Forecast

Advertisements
Track Severe Weather on mobile